Time;durP1;ratioP1;P1;durP2;ratioP2;P2;SDS_P1;SDS_P2;PMS_P1;PMS_P2;Temp;Humidity;BMP_temperature;BMP_pressure;BME280_temperature;BME280_humidity;BME280_pressure;Samples;Min_cycle;Max_cycle;Signal;HPM_P1;HPM_P2
2023/05/21 00:01:04;;;;;;;4.23;3.80;;;13.80;99.90;;;;;;4952468;28;20228;-61
2023/05/21 00:03:34;;;;;;;3.70;3.27;;;13.80;99.90;;;;;;4950128;28;20196;-61
2023/05/21 00:06:05;;;;;;;4.53;3.57;;;13.70;99.90;;;;;;4958906;28;20208;-61
2023/05/21 00:08:33;;;;;;;3.47;3.27;;;13.70;99.90;;;;;;4954327;28;20230;-61
2023/05/21 00:11:02;;;;;;;4.03;3.63;;;13.70;99.90;;;;;;4952796;28;20228;-61
2023/05/21 00:13:30;;;;;;;3.87;3.67;;;13.60;99.90;;;;;;4951961;28;20223;-61
2023/05/21 00:15:58;;;;;;;3.93;3.57;;;13.60;99.90;;;;;;4951860;28;20220;-61
2023/05/21 00:18:27;;;;;;;4.27;3.80;;;13.60;99.90;;;;;;4951691;28;20746;-61
2023/05/21 00:20:56;;;;;;;3.73;3.50;;;13.50;99.90;;;;;;4950890;28;20223;-61
2023/05/21 00:23:26;;;;;;;3.30;3.20;;;13.50;99.90;;;;;;4952024;28;20224;-61
2023/05/21 00:25:55;;;;;;;3.70;3.50;;;13.50;99.90;;;;;;4950461;28;20235;-61
2023/05/21 00:28:23;;;;;;;3.90;3.60;;;13.50;99.90;;;;;;4951643;28;20224;-61
2023/05/21 00:30:51;;;;;;;3.83;3.63;;;13.50;99.90;;;;;;4944669;28;20221;-60
2023/05/21 00:33:21;;;;;;;4.23;3.80;;;13.40;99.90;;;;;;4952977;28;20662;-62
2023/05/21 00:35:50;;;;;;;4.10;3.80;;;13.40;99.90;;;;;;4932940;29;20237;-61
2023/05/21 00:38:18;;;;;;;4.30;4.00;;;13.40;99.90;;;;;;4947147;28;20243;-61
2023/05/21 00:40:48;;;;;;;4.07;3.77;;;13.30;99.90;;;;;;4957551;28;20220;-61
2023/05/21 00:43:17;;;;;;;6.17;4.80;;;13.30;99.90;;;;;;4938755;28;20235;-61
2023/05/21 00:45:47;;;;;;;7.17;4.40;;;13.30;99.90;;;;;;4947477;28;20239;-61
2023/05/21 00:48:15;;;;;;;5.47;4.30;;;13.20;99.90;;;;;;4951215;28;20212;-61
2023/05/21 00:50:45;;;;;;;4.47;4.17;;;13.20;99.90;;;;;;4950127;28;20223;-61
2023/05/21 00:53:14;;;;;;;7.13;4.43;;;13.10;99.90;;;;;;4944320;28;20228;-61
2023/05/21 00:55:42;;;;;;;5.27;4.43;;;13.10;99.90;;;;;;4952211;28;20231;-61
2023/05/21 00:58:12;;;;;;;4.90;4.53;;;13.10;99.90;;;;;;4959407;28;20231;-61
2023/05/21 01:00:43;;;;;;;5.10;4.60;;;13.00;99.90;;;;;;4953959;28;20535;-61
2023/05/21 01:03:12;;;;;;;5.10;4.80;;;13.00;99.90;;;;;;4967113;28;20207;-61
2023/05/21 01:05:43;;;;;;;5.23;4.83;;;12.90;99.90;;;;;;4952144;28;20237;-61
2023/05/21 01:08:13;;;;;;;5.07;4.53;;;12.90;99.90;;;;;;4952038;28;20244;-61
2023/05/21 01:10:43;;;;;;;5.23;4.70;;;12.90;99.90;;;;;;4952807;28;20730;-61
2023/05/21 01:13:13;;;;;;;5.80;4.90;;;12.80;99.90;;;;;;4951261;28;20232;-61
2023/05/21 01:15:43;;;;;;;5.00;4.60;;;12.80;99.90;;;;;;4951010;28;25718;-61
2023/05/21 01:18:13;;;;;;;5.67;5.00;;;12.80;99.90;;;;;;4948572;28;20192;-61
2023/05/21 01:20:46;;;;;;;5.60;4.70;;;12.80;99.90;;;;;;4952562;28;20313;-61
2023/05/21 01:23:17;;;;;;;5.20;4.70;;;12.70;99.90;;;;;;4958973;28;20231;-61
2023/05/21 01:25:46;;;;;;;6.20;5.17;;;12.70;99.90;;;;;;4952376;28;20224;-60
2023/05/21 01:28:15;;;;;;;6.83;5.20;;;12.60;99.90;;;;;;4951227;28;20579;-61
2023/05/21 01:30:43;;;;;;;5.20;4.77;;;12.60;99.90;;;;;;4952017;28;20224;-60
2023/05/21 01:33:18;;;;;;;5.73;4.77;;;12.60;99.90;;;;;;4951247;28;20196;-61
2023/05/21 01:35:54;;;;;;;5.07;4.63;;;12.60;99.90;;;;;;4951869;29;20597;-61
2023/05/21 01:38:29;;;;;;;5.50;5.00;;;12.50;99.90;;;;;;4952299;28;20238;-61
2023/05/21 01:41:02;;;;;;;4.70;4.40;;;12.50;99.90;;;;;;4946740;28;20226;-61
2023/05/21 01:43:34;;;;;;;5.70;5.10;;;12.50;99.90;;;;;;4949305;28;20228;-61
2023/05/21 01:46:03;;;;;;;5.23;4.90;;;12.40;99.90;;;;;;4952007;28;20233;-60
2023/05/21 01:48:32;;;;;;;5.00;4.67;;;12.40;99.90;;;;;;4951812;28;20255;-61
2023/05/21 01:51:02;;;;;;;5.27;4.97;;;12.40;99.90;;;;;;4948856;28;20211;-60
2023/05/21 01:53:32;;;;;;;5.57;4.93;;;12.40;99.90;;;;;;4947139;28;20248;-61
2023/05/21 01:56:01;;;;;;;5.73;5.27;;;12.40;99.90;;;;;;4949326;28;20220;-61
2023/05/21 01:58:29;;;;;;;5.40;5.00;;;12.30;99.90;;;;;;4948627;28;20891;-60
2023/05/21 02:00:58;;;;;;;6.60;4.80;;;12.30;99.90;;;;;;4946828;28;20595;-61
2023/05/21 02:03:29;;;;;;;5.33;4.87;;;12.30;99.90;;;;;;4949437;28;20214;-61
2023/05/21 02:05:58;;;;;;;5.63;5.23;;;12.20;99.90;;;;;;4955527;28;20298;-61
2023/05/21 02:08:27;;;;;;;5.90;5.03;;;12.20;99.90;;;;;;4949044;28;20708;-61
2023/05/21 02:10:59;;;;;;;5.50;4.80;;;12.20;99.90;;;;;;4956444;28;20641;-61
2023/05/21 02:13:27;;;;;;;9.00;5.60;;;12.20;99.90;;;;;;4952409;28;20220;-61
2023/05/21 02:15:56;;;;;;;5.83;5.23;;;12.20;99.90;;;;;;4952308;28;20227;-61
2023/05/21 02:18:25;;;;;;;5.40;5.00;;;12.20;99.90;;;;;;4954312;28;20274;-61
2023/05/21 02:20:53;;;;;;;7.13;6.10;;;12.20;99.90;;;;;;4953693;28;20188;-60
2023/05/21 02:23:22;;;;;;;6.40;5.90;;;12.20;99.90;;;;;;4953446;28;20230;-60
2023/05/21 02:25:51;;;;;;;6.77;5.50;;;12.10;99.90;;;;;;4954570;28;20282;-61
2023/05/21 02:28:21;;;;;;;6.80;6.17;;;12.10;99.90;;;;;;4954206;28;20219;-61
2023/05/21 02:30:49;;;;;;;6.77;6.07;;;12.10;99.90;;;;;;4954909;28;20255;-60
2023/05/21 02:33:19;;;;;;;6.97;5.90;;;12.10;99.90;;;;;;4955848;28;20225;-60
2023/05/21 02:35:47;;;;;;;6.60;6.00;;;12.10;99.90;;;;;;4952265;28;20224;-61
2023/05/21 02:38:21;;;;;;;7.03;6.30;;;12.10;99.90;;;;;;4955127;28;20228;-61
2023/05/21 02:40:50;;;;;;;6.67;6.10;;;12.10;99.90;;;;;;4954748;28;20314;-61
2023/05/21 02:43:20;;;;;;;6.43;5.83;;;12.10;99.90;;;;;;4954101;28;20220;-60
2023/05/21 02:45:50;;;;;;;6.27;5.73;;;12.10;99.90;;;;;;4956037;28;20239;-61
2023/05/21 02:48:18;;;;;;;7.07;6.37;;;12.00;99.90;;;;;;4953913;28;20204;-61
2023/05/21 02:50:46;;;;;;;7.07;6.37;;;12.00;99.90;;;;;;4951559;28;20272;-61
2023/05/21 02:53:15;;;;;;;8.03;6.53;;;12.00;99.90;;;;;;4955584;28;20734;-60
2023/05/21 02:55:43;;;;;;;6.93;6.43;;;12.00;99.90;;;;;;4952010;28;20219;-60
2023/05/21 02:58:13;;;;;;;6.87;6.27;;;11.90;99.90;;;;;;4956073;28;20234;-60
2023/05/21 03:00:43;;;;;;;7.33;6.57;;;12.00;99.90;;;;;;4952867;28;20234;-60
2023/05/21 03:03:11;;;;;;;7.73;6.97;;;12.00;99.90;;;;;;4954885;28;20195;-60
2023/05/21 03:05:40;;;;;;;7.63;6.93;;;11.90;99.90;;;;;;4955484;28;20220;-60
2023/05/21 03:08:09;;;;;;;8.23;6.73;;;11.90;99.90;;;;;;4957065;28;20224;-61
2023/05/21 03:10:37;;;;;;;7.20;6.63;;;11.90;99.90;;;;;;4953366;28;20234;-61
2023/05/21 03:13:05;;;;;;;7.70;7.00;;;11.90;99.90;;;;;;4958154;28;20228;-60
2023/05/21 03:15:37;;;;;;;10.77;7.27;;;11.90;99.90;;;;;;4958378;28;20207;-61
2023/05/21 03:18:08;;;;;;;10.10;7.00;;;11.90;99.90;;;;;;4955348;28;20236;-60
2023/05/21 03:20:42;;;;;;;7.53;6.87;;;11.90;66.00;;;;;;4964494;28;20223;-61
2023/05/21 03:23:11;;;;;;;7.63;6.93;;;11.80;62.70;;;;;;4954557;28;20228;-61
2023/05/21 03:25:44;;;;;;;8.13;7.33;;;11.80;64.10;;;;;;4964074;28;20637;-60
2023/05/21 03:28:13;;;;;;;8.00;7.30;;;11.80;62.00;;;;;;4959827;28;20255;-61
2023/05/21 03:30:45;;;;;;;11.77;7.67;;;11.80;59.40;;;;;;4955909;28;20207;-61
2023/05/21 03:33:15;;;;;;;9.37;7.43;;;11.70;62.00;;;;;;4952703;28;20630;-60
2023/05/21 03:35:43;;;;;;;8.03;7.23;;;11.70;71.00;;;;;;4954735;28;20248;-60
2023/05/21 03:38:12;;;;;;;9.33;7.60;;;11.70;70.00;;;;;;4954605;28;20224;-61
2023/05/21 03:40:40;;;;;;;9.37;7.50;;;11.70;74.40;;;;;;4954643;28;20239;-60
2023/05/21 03:43:08;;;;;;;8.70;7.87;;;11.70;78.00;;;;;;4953634;28;20590;-61
2023/05/21 03:45:37;;;;;;;8.57;7.80;;;11.70;75.40;;;;;;4951141;28;20207;-60
2023/05/21 03:48:06;;;;;;;13.00;7.53;;;11.70;74.20;;;;;;4950468;28;20224;-60
2023/05/21 03:50:36;;;;;;;8.20;7.40;;;11.70;76.10;;;;;;4951588;28;20242;-61
2023/05/21 03:53:04;;;;;;;8.50;7.70;;;11.70;78.40;;;;;;4946878;28;20759;-61
2023/05/21 03:55:33;;;;;;;8.10;7.40;;;11.70;81.50;;;;;;4950715;28;20231;-61
2023/05/21 03:58:01;;;;;;;10.30;7.63;;;11.70;81.40;;;;;;4952797;28;20583;-60
2023/05/21 04:00:31;;;;;;;8.70;7.63;;;11.70;86.60;;;;;;4953667;28;20220;-60
2023/05/21 04:02:59;;;;;;;10.10;7.70;;;11.70;80.10;;;;;;4952978;28;20539;-60
2023/05/21 04:05:28;;;;;;;9.03;7.80;;;11.70;84.50;;;;;;4952860;28;20230;-60
2023/05/21 04:07:58;;;;;;;11.43;7.90;;;11.70;79.00;;;;;;4951198;28;20606;-60
2023/05/21 04:10:27;;;;;;;9.03;8.07;;;11.70;84.90;;;;;;4951761;28;20216;-61
2023/05/21 04:12:55;;;;;;;8.30;7.50;;;11.70;83.30;;;;;;4952371;28;20227;-61
2023/05/21 04:15:24;;;;;;;13.83;8.33;;;11.80;79.60;;;;;;4952939;28;20928;-60
2023/05/21 04:17:52;;;;;;;8.47;7.67;;;11.70;78.90;;;;;;4951725;28;20188;-60
2023/05/21 04:20:20;;;;;;;9.27;8.37;;;11.80;81.80;;;;;;4953215;28;20227;-61
2023/05/21 04:22:49;;;;;;;9.23;8.10;;;11.70;80.00;;;;;;4953672;28;20242;-60
2023/05/21 04:25:21;;;;;;;9.87;8.40;;;11.80;83.60;;;;;;4953454;28;20713;-60
2023/05/21 04:27:51;;;;;;;9.17;8.33;;;11.80;85.10;;;;;;4956704;28;20227;-61
2023/05/21 04:30:19;;;;;;;9.20;8.30;;;11.80;83.80;;;;;;4953229;28;20641;-60
2023/05/21 04:32:48;;;;;;;15.23;8.80;;;11.80;84.70;;;;;;4950860;28;20228;-60
2023/05/21 04:35:16;;;;;;;10.20;8.57;;;11.90;84.80;;;;;;4952063;28;20295;-61
2023/05/21 04:37:45;;;;;;;10.40;8.27;;;11.90;81.90;;;;;;4951986;28;20224;-60
2023/05/21 04:40:16;;;;;;;13.93;8.53;;;12.00;84.20;;;;;;4942738;28;20741;-60
2023/05/21 04:42:49;;;;;;;12.03;8.53;;;12.00;83.00;;;;;;4952233;28;20226;-60
2023/05/21 04:45:17;;;;;;;9.03;8.13;;;12.10;85.70;;;;;;4952264;28;20220;-61
2023/05/21 04:47:46;;;;;;;11.63;8.07;;;12.10;84.70;;;;;;4952405;28;20702;-60
2023/05/21 04:50:15;;;;;;;11.20;8.33;;;12.10;84.50;;;;;;4953364;28;20294;-61
2023/05/21 04:52:44;;;;;;;11.03;7.90;;;12.10;85.00;;;;;;4948412;28;20220;-60
2023/05/21 04:55:12;;;;;;;9.00;8.13;;;12.20;84.60;;;;;;4952311;28;20636;-61
2023/05/21 04:57:41;;;;;;;8.27;7.50;;;12.20;86.20;;;;;;4950668;28;20678;-61
2023/05/21 05:00:12;;;;;;;10.77;8.07;;;12.30;83.80;;;;;;4952653;28;20280;-60
2023/05/21 05:02:40;;;;;;;8.40;7.67;;;12.30;87.30;;;;;;4951592;28;20544;-60
2023/05/21 05:05:09;;;;;;;8.90;8.10;;;12.40;83.70;;;;;;4953453;28;20303;-61
2023/05/21 05:07:37;;;;;;;7.93;7.20;;;12.40;82.70;;;;;;4956214;28;20275;-61
2023/05/21 05:10:06;;;;;;;9.87;7.83;;;12.50;82.70;;;;;;4953353;28;20231;-61
2023/05/21 05:12:38;;;;;;;9.17;8.27;;;12.60;78.70;;;;;;4950373;28;20203;-62
2023/05/21 05:15:07;;;;;;;10.47;7.70;;;12.70;79.50;;;;;;4954321;28;20196;-60
2023/05/21 05:17:38;;;;;;;8.53;7.37;;;12.70;79.50;;;;;;4950206;28;20226;-60
2023/05/21 05:20:08;;;;;;;8.30;7.47;;;12.80;78.40;;;;;;4953709;28;20238;-60
2023/05/21 05:22:37;;;;;;;8.47;7.67;;;12.90;72.00;;;;;;4954238;28;20235;-61
2023/05/21 05:25:06;;;;;;;7.70;6.93;;;13.00;72.40;;;;;;4951689;28;20224;-61
2023/05/21 05:27:35;;;;;;;7.93;7.20;;;13.10;69.80;;;;;;4949901;28;20204;-60
2023/05/21 05:30:07;;;;;;;7.90;7.10;;;13.30;56.40;;;;;;4952039;28;20196;-61
2023/05/21 05:32:36;;;;;;;8.43;7.53;;;13.40;53.60;;;;;;4948816;28;20224;-61
2023/05/21 05:35:06;;;;;;;6.93;6.43;;;13.60;44.80;;;;;;4950442;28;20236;-61
2023/05/21 05:37:35;;;;;;;10.27;7.60;;;13.70;41.50;;;;;;4950378;28;20216;-61
2023/05/21 05:40:04;;;;;;;9.80;6.97;;;13.80;41.70;;;;;;4962569;28;20224;-60
2023/05/21 05:42:32;;;;;;;10.23;7.00;;;13.90;39.80;;;;;;4950544;28;20192;-60
2023/05/21 05:45:00;;;;;;;7.00;6.27;;;14.00;27.30;;;;;;4958437;28;20204;-60
2023/05/21 05:47:30;;;;;;;7.53;6.83;;;14.10;21.50;;;;;;4954756;28;20250;-61
2023/05/21 05:49:59;;;;;;;7.47;6.20;;;14.20;21.60;;;;;;4945493;28;20305;-61
2023/05/21 05:52:27;;;;;;;7.87;6.70;;;14.40;12.30;;;;;;4951070;28;20780;-61
2023/05/21 05:54:56;;;;;;;11.00;6.97;;;14.50;8.30;;;;;;4951731;28;20227;-61
2023/05/21 05:57:24;;;;;;;7.63;6.47;;;14.60;4.90;;;;;;4951372;28;20200;-61
2023/05/21 05:59:52;;;;;;;6.83;6.17;;;14.70;1.00;;;;;;4965152;28;20233;-61
2023/05/21 06:02:21;;;;;;;14.20;6.20;;;14.70;1.00;;;;;;4949150;28;20220;-61
2023/05/21 06:04:49;;;;;;;7.13;5.90;;;14.80;1.00;;;;;;4951267;28;20251;-61
2023/05/21 06:07:18;;;;;;;6.87;6.00;;;14.90;1.00;;;;;;4952307;28;20228;-61
2023/05/21 06:09:47;;;;;;;7.57;6.10;;;14.90;1.00;;;;;;4952027;28;20252;-61
2023/05/21 06:12:15;;;;;;;6.83;6.20;;;15.00;1.00;;;;;;4949043;28;20212;-61
2023/05/21 06:14:44;;;;;;;6.97;6.37;;;15.00;18.10;;;;;;4950666;28;20734;-61
2023/05/21 06:17:13;;;;;;;8.50;6.30;;;15.10;69.80;;;;;;4949812;28;20231;-61
2023/05/21 06:19:41;;;;;;;6.83;6.10;;;15.20;81.20;;;;;;4950586;28;20220;-61
2023/05/21 06:22:09;;;;;;;6.53;6.03;;;15.30;83.70;;;;;;4948752;28;20294;-61
2023/05/21 06:24:39;;;;;;;6.77;6.20;;;15.30;92.90;;;;;;4945762;28;20201;-61
2023/05/21 06:27:07;;;;;;;6.53;5.93;;;15.50;99.90;;;;;;4949614;28;20200;-61
2023/05/21 06:29:36;;;;;;;6.50;5.90;;;15.50;99.90;;;;;;4949863;28;20226;-61
2023/05/21 06:32:05;;;;;;;7.37;6.30;;;15.60;99.90;;;;;;4951731;28;20228;-62
2023/05/21 06:34:33;;;;;;;6.70;6.20;;;15.60;99.90;;;;;;4956836;28;20235;-61
2023/05/21 06:37:03;;;;;;;8.43;6.67;;;15.70;99.90;;;;;;4951548;28;20598;-62
2023/05/21 06:39:32;;;;;;;7.07;6.20;;;15.90;99.90;;;;;;4951862;28;20197;-61
2023/05/21 06:42:01;;;;;;;7.07;6.47;;;15.90;99.90;;;;;;4950039;28;20204;-61
2023/05/21 06:44:29;;;;;;;7.10;6.50;;;16.00;99.90;;;;;;4950859;28;20228;-61
2023/05/21 06:46:58;;;;;;;6.57;6.07;;;16.20;99.90;;;;;;4947078;28;20616;-61
2023/05/21 06:49:26;;;;;;;7.23;6.53;;;16.30;99.90;;;;;;4952601;28;20690;-61
2023/05/21 06:51:54;;;;;;;10.33;6.83;;;16.30;99.90;;;;;;4954077;28;20687;-61
2023/05/21 06:54:23;;;;;;;10.30;6.60;;;16.30;99.90;;;;;;4954742;28;20199;-61
2023/05/21 06:56:53;;;;;;;8.23;6.73;;;16.30;99.90;;;;;;4954855;28;20287;-61
2023/05/21 06:59:23;;;;;;;7.47;6.73;;;16.40;99.90;;;;;;4951273;28;20222;-62
2023/05/21 07:01:52;;;;;;;6.90;6.30;;;16.40;99.90;;;;;;4945768;28;20218;-61
2023/05/21 07:04:20;;;;;;;7.53;6.70;;;16.50;99.90;;;;;;4946867;28;20232;-62
2023/05/21 07:06:48;;;;;;;12.70;6.53;;;16.60;99.90;;;;;;4949240;28;20231;-62
2023/05/21 07:09:17;;;;;;;6.87;6.20;;;16.80;99.90;;;;;;4953699;28;20209;-62
2023/05/21 07:11:45;;;;;;;6.37;5.80;;;17.00;99.90;;;;;;4950400;28;20219;-61
2023/05/21 07:14:13;;;;;;;11.00;7.00;;;17.20;99.90;;;;;;4952683;28;20219;-63
2023/05/21 07:16:43;;;;;;;7.40;6.80;;;17.30;99.90;;;;;;4960984;28;20238;-62
2023/05/21 07:19:11;;;;;;;7.50;6.33;;;17.50;99.90;;;;;;4953152;28;20224;-62
2023/05/21 07:21:39;;;;;;;7.70;7.00;;;17.70;99.90;;;;;;4952256;28;20206;-62
2023/05/21 07:24:08;;;;;;;9.63;6.70;;;17.80;99.90;;;;;;4954466;28;20200;-61
2023/05/21 07:26:36;;;;;;;7.23;6.67;;;17.90;99.90;;;;;;4949383;28;20224;-62
2023/05/21 07:29:04;;;;;;;7.27;6.67;;;17.90;99.90;;;;;;4954522;28;20423;-61
2023/05/21 07:31:32;;;;;;;7.97;7.10;;;17.80;99.90;;;;;;4953525;28;20220;-62
2023/05/21 07:34:02;;;;;;;7.43;6.57;;;17.80;99.90;;;;;;4954090;28;20232;-61
2023/05/21 07:36:32;;;;;;;9.87;7.03;;;17.80;99.90;;;;;;4953564;28;20646;-61
2023/05/21 07:39:00;;;;;;;10.40;7.10;;;18.10;99.90;;;;;;4953619;28;20203;-62
2023/05/21 07:41:29;;;;;;;9.47;7.00;;;18.30;99.90;;;;;;4954511;28;20246;-62
2023/05/21 07:43:57;;;;;;;7.27;6.50;;;18.50;99.90;;;;;;4954516;28;20231;-62
2023/05/21 07:46:25;;;;;;;7.53;6.83;;;18.60;99.90;;;;;;4950681;28;20228;-61
2023/05/21 07:48:55;;;;;;;9.00;7.07;;;18.60;99.90;;;;;;4949546;28;20845;-61
2023/05/21 07:51:25;;;;;;;7.17;6.57;;;18.60;99.90;;;;;;4952941;28;20196;-62
2023/05/21 07:53:54;;;;;;;7.70;7.00;;;18.70;99.90;;;;;;4952771;28;20196;-62
2023/05/21 07:56:22;;;;;;;8.17;7.30;;;18.70;99.90;;;;;;4952858;28;20733;-62
2023/05/21 07:58:51;;;;;;;7.50;6.80;;;18.70;99.90;;;;;;4950127;28;20224;-62
2023/05/21 08:01:19;;;;;;;10.83;6.90;;;18.90;99.90;;;;;;4945378;28;20706;-62
2023/05/21 08:03:47;;;;;;;10.83;7.00;;;19.10;99.90;;;;;;4947270;28;20239;-62
2023/05/21 08:06:16;;;;;;;13.50;6.80;;;19.30;99.90;;;;;;4950987;28;20294;-62
2023/05/21 08:08:46;;;;;;;8.50;7.07;;;19.40;99.90;;;;;;4951724;28;20227;-62
2023/05/21 08:11:14;;;;;;;7.83;7.03;;;19.60;99.90;;;;;;4949838;28;20220;-62
2023/05/21 08:13:42;;;;;;;7.30;6.10;;;19.70;99.90;;;;;;4947352;28;20702;-62
2023/05/21 08:16:11;;;;;;;11.03;7.30;;;19.90;99.90;;;;;;4948250;28;20224;-61
2023/05/21 08:18:40;;;;;;;7.87;6.83;;;20.10;99.90;;;;;;4950178;28;20205;-62
2023/05/21 08:21:08;;;;;;;7.80;7.00;;;20.30;99.90;;;;;;4959247;28;20556;-62
2023/05/21 08:23:36;;;;;;;7.83;6.80;;;20.30;99.90;;;;;;4949268;28;20217;-62
2023/05/21 08:26:07;;;;;;;6.57;5.90;;;20.30;99.90;;;;;;4951145;28;20744;-62
2023/05/21 08:28:37;;;;;;;7.37;6.67;;;20.50;99.90;;;;;;4949202;28;20226;-62
2023/05/21 08:31:06;;;;;;;7.73;5.77;;;20.90;99.90;;;;;;4954368;28;20228;-62
2023/05/21 08:33:36;;;;;;;7.10;6.50;;;21.10;99.90;;;;;;4951234;28;20210;-62
2023/05/21 08:36:05;;;;;;;7.00;6.40;;;21.00;99.90;;;;;;4949839;28;20209;-62
2023/05/21 08:38:35;;;;;;;7.43;6.77;;;21.00;99.90;;;;;;4948018;28;20668;-62
2023/05/21 08:41:09;;;;;;;7.67;6.30;;;20.90;99.90;;;;;;4951051;28;20253;-62
2023/05/21 08:43:38;;;;;;;7.73;6.37;;;20.90;99.90;;;;;;4947646;28;20222;-62
2023/05/21 08:46:08;;;;;;;10.90;6.67;;;21.20;99.90;;;;;;4951141;28;20321;-62
2023/05/21 08:48:37;;;;;;;6.80;6.20;;;21.30;99.90;;;;;;4949603;28;20194;-62
2023/05/21 08:51:06;;;;;;;7.47;6.77;;;21.80;99.90;;;;;;4948682;28;20203;-61
2023/05/21 08:53:35;;;;;;;6.80;6.13;;;22.20;99.90;;;;;;4951798;28;20330;-62
2023/05/21 08:56:04;;;;;;;6.93;6.23;;;22.20;99.90;;;;;;4950158;28;20239;-62
2023/05/21 08:58:35;;;;;;;11.07;7.00;;;22.20;99.90;;;;;;4946712;28;20764;-62
2023/05/21 09:01:04;;;;;;;6.67;6.07;;;22.60;99.90;;;;;;4949051;28;20231;-62
2023/05/21 09:03:33;;;;;;;6.93;6.33;;;22.70;99.90;;;;;;4947765;28;20591;-62
2023/05/21 09:06:02;;;;;;;7.87;6.53;;;22.50;99.90;;;;;;4949524;28;20283;-61
2023/05/21 09:08:32;;;;;;;7.27;6.57;;;22.40;99.90;;;;;;4952450;28;20228;-62
2023/05/21 09:11:02;;;;;;;7.83;6.77;;;22.40;99.90;;;;;;4951241;28;20231;-61
2023/05/21 09:13:32;;;;;;;11.03;7.70;;;22.20;99.90;;;;;;4954454;28;20228;-62
2023/05/21 09:16:02;;;;;;;7.47;6.77;;;22.10;99.90;;;;;;4953105;28;20746;-61
2023/05/21 09:18:30;;;;;;;7.57;6.97;;;22.20;99.90;;;;;;4948072;28;20288;-61
2023/05/21 09:21:01;;;;;;;7.67;6.90;;;22.40;99.90;;;;;;4943868;28;20244;-62
2023/05/21 09:23:29;;;;;;;7.40;6.80;;;22.80;99.90;;;;;;4951222;28;20228;-61
2023/05/21 09:25:58;;;;;;;7.50;6.80;;;23.20;99.90;;;;;;4951621;28;20216;-61
2023/05/21 09:28:26;;;;;;;7.93;7.10;;;23.60;99.90;;;;;;4949096;28;20220;-62
2023/05/21 09:30:54;;;;;;;7.97;7.27;;;24.20;99.90;;;;;;4949539;28;20236;-62
2023/05/21 09:33:29;;;;;;;7.90;7.20;;;24.40;99.90;;;;;;4948828;28;20193;-60
2023/05/21 09:35:57;;;;;;;9.27;6.57;;;24.60;99.90;;;;;;4943234;28;20719;-61
2023/05/21 09:38:26;;;;;;;8.20;7.40;;;24.90;99.90;;;;;;4947069;28;20226;-61
2023/05/21 09:40:55;;;;;;;9.35;7.00;;;25.20;99.90;;;;;;4940977;28;20234;-61
2023/05/21 09:43:25;;;;;;;8.85;7.85;;;25.50;99.90;;;;;;4946805;28;20252;-62
2023/05/21 09:45:54;;;;;;;8.10;7.30;;;25.30;99.90;;;;;;4948151;28;20228;-61
2023/05/21 09:48:35;;;;;;;10.30;9.30;;;25.50;99.90;;;;;;4951816;28;20334;-61
2023/05/21 09:51:09;;;;;;;9.95;8.85;;;25.30;99.90;;;;;;4949363;29;20209;-62
2023/05/21 09:53:43;;;;;;;8.85;7.95;;;25.60;99.90;;;;;;4948195;28;20232;-62
2023/05/21 09:56:12;;;;;;;9.82;7.72;;;25.70;99.90;;;;;;4969252;28;20232;-62
2023/05/21 09:58:40;;;;;;;8.65;6.93;;;26.00;99.90;;;;;;4947916;28;20297;-62
2023/05/21 10:01:11;;;;;;;8.38;7.57;;;26.30;99.90;;;;;;4947465;28;20238;-62
2023/05/21 10:03:43;;;;;;;9.45;7.25;;;26.60;99.90;;;;;;4947837;28;20209;-62
2023/05/21 10:06:13;;;;;;;7.80;7.10;;;26.60;99.90;;;;;;4949994;28;20190;-62
2023/05/21 10:08:45;;;;;;;8.25;7.45;;;26.70;99.90;;;;;;4949104;28;20226;-62
2023/05/21 10:11:14;;;;;;;10.00;8.10;;;26.70;99.90;;;;;;4950140;28;20232;-62
2023/05/21 10:13:47;;;;;;;7.78;7.10;;;26.40;99.90;;;;;;4948457;28;20221;-62
2023/05/21 10:16:16;;;;;;;7.95;7.22;;;26.00;99.90;;;;;;4947885;28;20591;-62
2023/05/21 10:18:47;;;;;;;7.97;7.28;;;26.30;99.90;;;;;;4946249;28;20256;-60
2023/05/21 10:21:17;;;;;;;17.80;11.63;;;26.40;99.90;;;;;;4947035;29;20229;-60
2023/05/21 10:23:46;;;;;;;11.60;9.18;;;26.70;99.90;;;;;;4947615;28;20224;-59
2023/05/21 10:26:15;;;;;;;11.95;7.82;;;26.80;99.90;;;;;;4947462;28;20237;-59
2023/05/21 10:28:45;;;;;;;12.68;10.15;;;27.10;99.90;;;;;;4954166;28;20230;-60
2023/05/21 10:31:13;;;;;;;10.30;8.85;;;27.40;99.90;;;;;;4954310;28;20242;-60
2023/05/21 10:33:42;;;;;;;14.88;10.10;;;27.60;99.90;;;;;;4950425;28;20206;-60
2023/05/21 10:36:14;;;;;;;12.57;9.50;;;27.50;99.90;;;;;;4953587;28;20285;-60
2023/05/21 10:38:43;;;;;;;18.65;9.63;;;27.10;99.90;;;;;;4951469;28;20584;-60
2023/05/21 10:41:13;;;;;;;9.30;8.27;;;26.50;99.90;;;;;;4953689;28;20222;-59
2023/05/21 10:43:52;;;;;;;9.80;8.80;;;26.20;99.90;;;;;;4948816;28;20233;-60
2023/05/21 10:47:05;;;;;;;12.98;11.32;;;26.00;99.90;;;;;;4954228;28;20239;-60
2023/05/21 10:49:45;;;;;;;12.13;10.88;;;26.00;99.90;;;;;;4895341;29;20230;-60
2023/05/21 10:52:33;;;;;;;16.00;10.90;;;25.50;99.90;;;;;;4955206;28;20211;-60
2023/05/21 10:55:27;;;;;;;15.37;12.17;;;25.60;99.90;;;;;;4956074;28;20220;-61
2023/05/21 10:58:16;;;;;;;10.40;9.15;;;25.80;99.90;;;;;;4953821;28;20234;-60
2023/05/21 11:00:45;;;;;;;11.40;10.30;;;26.00;99.90;;;;;;4953206;28;20235;-60
2023/05/21 11:03:14;;;;;;;12.23;9.43;;;25.50;99.90;;;;;;4955432;28;20188;-60
2023/05/21 11:05:52;;;;;;;12.57;10.27;;;25.10;99.90;;;;;;4957055;28;20295;-60
2023/05/21 11:08:27;;;;;;;12.37;10.47;;;24.60;99.90;;;;;;4956565;28;20216;-59
2023/05/21 11:10:56;;;;;;;12.73;10.03;;;24.30;99.90;;;;;;4948462;28;20227;-59
2023/05/21 11:13:27;;;;;;;11.43;9.13;;;24.10;99.90;;;;;;4950779;28;20220;-59
2023/05/21 11:16:13;;;;;;;10.33;9.23;;;24.30;99.90;;;;;;4954112;28;20251;-59
2023/05/21 11:19:01;;;;;;;13.53;9.93;;;24.30;99.90;;;;;;4954710;28;20551;-60
2023/05/21 11:21:30;;;;;;;11.50;9.83;;;23.80;99.90;;;;;;4951960;28;20240;-60
2023/05/21 11:24:09;;;;;;;10.07;9.07;;;23.70;99.90;;;;;;4956708;28;20201;-60
2023/05/21 11:27:04;;;;;;;11.47;9.27;;;23.50;99.90;;;;;;4963481;28;20315;-60
2023/05/21 11:29:39;;;;;;;10.53;9.07;;;23.20;99.90;;;;;;4955777;28;20313;-60
2023/05/21 11:32:11;;;;;;;10.80;9.40;;;23.30;99.90;;;;;;4951639;28;20247;-59
2023/05/21 11:34:41;;;;;;;13.30;10.73;;;23.40;99.90;;;;;;4945942;28;20243;-59
2023/05/21 11:37:34;;;;;;;14.20;10.43;;;23.40;99.90;;;;;;4956972;28;20308;-60
2023/05/21 11:40:24;;;;;;;14.60;10.93;;;23.30;99.90;;;;;;4954751;28;20232;-60
2023/05/21 11:42:54;;;;;;;11.93;10.37;;;23.30;99.90;;;;;;4955894;28;20226;-60
2023/05/21 11:45:23;;;;;;;12.37;10.20;;;23.20;99.90;;;;;;4953891;28;20202;-59
2023/05/21 11:47:52;;;;;;;12.93;10.30;;;23.10;99.90;;;;;;4954874;28;20210;-59
2023/05/21 11:50:23;;;;;;;11.13;9.93;;;23.00;99.90;;;;;;4950685;28;20228;-59
2023/05/21 11:52:52;;;;;;;11.63;9.63;;;23.00;99.90;;;;;;4954448;28;20220;-60
2023/05/21 11:55:26;;;;;;;11.70;10.10;;;23.00;99.90;;;;;;4954391;28;20226;-60
2023/05/21 11:57:55;;;;;;;14.00;10.47;;;22.90;99.90;;;;;;4951288;28;20220;-60
2023/05/21 12:00:23;;;;;;;12.00;10.73;;;22.80;99.90;;;;;;4954716;28;20194;-60
2023/05/21 12:02:54;;;;;;;13.97;10.90;;;22.90;99.90;;;;;;4951944;28;20204;-59
2023/05/21 12:05:25;;;;;;;11.70;10.50;;;23.00;99.90;;;;;;4954477;28;20225;-59
2023/05/21 12:07:55;;;;;;;11.53;10.30;;;22.90;99.90;;;;;;4953658;28;20311;-59
2023/05/21 12:10:23;;;;;;;11.03;9.93;;;22.80;99.90;;;;;;4954117;28;20252;-59
2023/05/21 12:12:53;;;;;;;11.83;9.63;;;22.70;99.90;;;;;;4953833;28;20309;-59
2023/05/21 12:15:26;;;;;;;12.00;9.80;;;22.70;99.90;;;;;;4954628;28;20204;-59
2023/05/21 12:17:55;;;;;;;11.60;10.40;;;22.70;99.90;;;;;;4965120;28;20189;-59
2023/05/21 12:20:27;;;;;;;12.97;10.40;;;22.70;99.90;;;;;;4951076;28;20576;-59
2023/05/21 12:22:58;;;;;;;14.77;11.07;;;22.90;99.90;;;;;;4953215;28;20707;-60
2023/05/21 12:25:28;;;;;;;14.80;11.27;;;23.00;99.90;;;;;;4952691;28;20634;-60
2023/05/21 12:28:00;;;;;;;14.03;11.53;;;23.20;99.90;;;;;;4959625;28;20277;-60
2023/05/21 12:30:28;;;;;;;11.63;10.20;;;23.10;99.90;;;;;;4954726;28;20731;-59
2023/05/21 12:33:00;;;;;;;9.87;8.93;;;23.20;99.90;;;;;;4954675;28;20222;-59
2023/05/21 12:35:31;;;;;;;12.50;9.80;;;23.20;99.90;;;;;;4955247;28;20242;-60
2023/05/21 12:38:01;;;;;;;12.17;9.83;;;23.30;99.90;;;;;;4955547;28;20277;-59
2023/05/21 12:40:36;;;;;;;14.37;9.37;;;23.20;99.90;;;;;;4955112;28;20225;-60
2023/05/21 12:43:07;;;;;;;11.37;9.90;;;23.30;99.90;;;;;;4954202;28;20229;-60
2023/05/21 12:45:38;;;;;;;13.10;10.27;;;23.30;99.90;;;;;;4954953;28;20600;-60
2023/05/21 12:48:07;;;;;;;11.83;10.27;;;23.30;99.90;;;;;;4955082;28;20201;-59
2023/05/21 12:50:39;;;;;;;12.37;10.13;;;23.20;99.90;;;;;;4963530;28;20225;-59
2023/05/21 12:53:09;;;;;;;14.73;9.70;;;23.30;99.90;;;;;;4956196;28;20230;-60
2023/05/21 12:55:39;;;;;;;13.20;9.47;;;23.30;99.90;;;;;;4952126;28;20228;-60
2023/05/21 12:58:12;;;;;;;13.63;9.33;;;23.30;99.90;;;;;;4956493;28;20226;-59